sensor_id;sensor_type;location;lat;lon;timestamp;pressure;altitude;pressure_sealevel;temperature;humidity
65557;BME280;52200;53.490;14.376;2022-11-02T00:00:39;101730.13;;;7.76;99.84
65557;BME280;52200;53.490;14.376;2022-11-02T00:03:05;101725.91;;;7.80;98.51
65557;BME280;52200;53.490;14.376;2022-11-02T00:05:30;101721.69;;;7.86;97.77
65557;BME280;52200;53.490;14.376;2022-11-02T00:07:56;101731.72;;;7.45;98.98
65557;BME280;52200;53.490;14.376;2022-11-02T00:10:22;101728.38;;;7.59;99.59
65557;BME280;52200;53.490;14.376;2022-11-02T00:12:48;101742.72;;;7.59;99.09
65557;BME280;52200;53.490;14.376;2022-11-02T00:15:14;101735.13;;;7.56;99.20
65557;BME280;52200;53.490;14.376;2022-11-02T00:17:42;101734.25;;;7.45;99.23
65557;BME280;52200;53.490;14.376;2022-11-02T00:20:11;101730.84;;;7.27;99.43
65557;BME280;52200;53.490;14.376;2022-11-02T00:22:39;101733.44;;;7.50;99.13
65557;BME280;52200;53.490;14.376;2022-11-02T00:25:06;101742.66;;;7.28;98.66
65557;BME280;52200;53.490;14.376;2022-11-02T00:27:33;101737.59;;;7.28;99.15
65557;BME280;52200;53.490;14.376;2022-11-02T00:30:00;101740.88;;;7.10;99.59
65557;BME280;52200;53.490;14.376;2022-11-02T00:32:26;101741.75;;;7.14;98.79
65557;BME280;52200;53.490;14.376;2022-11-02T00:34:52;101742.44;;;6.88;99.50
65557;BME280;52200;53.490;14.376;2022-11-02T00:37:17;101735.78;;;7.02;99.98
65557;BME280;52200;53.490;14.376;2022-11-02T00:39:43;101744.22;;;6.98;99.86
65557;BME280;52200;53.490;14.376;2022-11-02T00:42:08;101739.09;;;6.90;99.75
65557;BME280;52200;53.490;14.376;2022-11-02T00:44:34;101739.09;;;6.89;100.00
65557;BME280;52200;53.490;14.376;2022-11-02T00:46:59;101743.28;;;6.81;100.00
65557;BME280;52200;53.490;14.376;2022-11-02T00:49:25;101749.34;;;7.17;98.79
65557;BME280;52200;53.490;14.376;2022-11-02T00:51:51;101741.50;;;6.63;99.09
65557;BME280;52200;53.490;14.376;2022-11-02T00:54:16;101741.44;;;6.55;100.00
65557;BME280;52200;53.490;14.376;2022-11-02T00:56:42;101735.31;;;6.22;100.00
65557;BME280;52200;53.490;14.376;2022-11-02T00:59:07;101733.84;;;6.53;100.00
65557;BME280;52200;53.490;14.376;2022-11-02T01:01:33;101742.31;;;6.58;99.70
65557;BME280;52200;53.490;14.376;2022-11-02T01:03:58;101732.94;;;6.43;100.00
65557;BME280;52200;53.490;14.376;2022-11-02T01:06:24;101730.41;;;6.43;99.82
65557;BME280;52200;53.490;14.376;2022-11-02T01:08:49;101732.13;;;6.48;99.65
65557;BME280;52200;53.490;14.376;2022-11-02T01:11:17;101730.53;;;6.59;98.90
65557;BME280;52200;53.490;14.376;2022-11-02T01:13:43;101725.34;;;6.40;98.45
65557;BME280;52200;53.490;14.376;2022-11-02T01:16:10;101726.13;;;6.35;98.21
65557;BME280;52200;53.490;14.376;2022-11-02T01:18:36;101715.13;;;6.25;98.78
65557;BME280;52200;53.490;14.376;2022-11-02T01:21:02;101720.19;;;6.25;98.30
65557;BME280;52200;53.490;14.376;2022-11-02T01:23:30;101712.59;;;6.22;98.11
65557;BME280;52200;53.490;14.376;2022-11-02T01:25:56;101720.84;;;6.04;98.48
65557;BME280;52200;53.490;14.376;2022-11-02T01:28:21;101717.56;;;6.08;98.73
65557;BME280;52200;53.490;14.376;2022-11-02T01:30:47;101720.06;;;6.09;98.12
65557;BME280;52200;53.490;14.376;2022-11-02T01:33:13;101715.91;;;6.15;97.94
65557;BME280;52200;53.490;14.376;2022-11-02T01:35:39;101717.97;;;5.67;98.37
65557;BME280;52200;53.490;14.376;2022-11-02T01:38:04;101719.59;;;5.60;98.32
65557;BME280;52200;53.490;14.376;2022-11-02T01:40:37;101727.28;;;5.71;99.49
65557;BME280;52200;53.490;14.376;2022-11-02T01:43:26;101721.47;;;5.79;97.99
65557;BME280;52200;53.490;14.376;2022-11-02T01:51:07;101719.19;;;6.04;97.27
65557;BME280;52200;53.490;14.376;2022-11-02T01:53:36;101715.78;;;5.99;97.51
65557;BME280;52200;53.490;14.376;2022-11-02T01:56:03;101709.97;;;6.09;97.23
65557;BME280;52200;53.490;14.376;2022-11-02T01:58:29;101714.19;;;6.09;97.01
65557;BME280;52200;53.490;14.376;2022-11-02T02:00:55;101709.75;;;5.88;97.56
65557;BME280;52200;53.490;14.376;2022-11-02T02:03:21;101713.19;;;5.96;97.31
65557;BME280;52200;53.490;14.376;2022-11-02T02:05:52;101708.28;;;6.07;96.86
65557;BME280;52200;53.490;14.376;2022-11-02T02:08:22;101701.56;;;6.07;95.75
65557;BME280;52200;53.490;14.376;2022-11-02T02:10:48;101702.38;;;6.05;95.61
65557;BME280;52200;53.490;14.376;2022-11-02T02:13:15;101693.97;;;6.04;96.47
65557;BME280;52200;53.490;14.376;2022-11-02T02:34:19;101700.69;;;6.02;96.29
65557;BME280;52200;53.490;14.376;2022-11-02T02:36:52;101701.56;;;6.07;96.10
65557;BME280;52200;53.490;14.376;2022-11-02T02:42:19;101691.44;;;6.04;95.76
65557;BME280;52200;53.490;14.376;2022-11-02T02:45:12;101686.41;;;6.07;96.04
65557;BME280;52200;53.490;14.376;2022-11-02T02:48:05;101675.44;;;5.99;95.44
65557;BME280;52200;53.490;14.376;2022-11-02T02:50:41;101679.63;;;6.00;95.25
65557;BME280;52200;53.490;14.376;2022-11-02T02:53:10;101670.31;;;5.93;95.46
65557;BME280;52200;53.490;14.376;2022-11-02T02:55:42;101675.31;;;5.88;96.25
65557;BME280;52200;53.490;14.376;2022-11-02T02:58:14;101674.53;;;5.97;95.89
65557;BME280;52200;53.490;14.376;2022-11-02T03:00:42;101676.97;;;5.88;96.33
65557;BME280;52200;53.490;14.376;2022-11-02T03:03:12;101677.88;;;5.93;95.49
65557;BME280;52200;53.490;14.376;2022-11-02T03:05:40;101687.97;;;5.93;95.56
65557;BME280;52200;53.490;14.376;2022-11-02T03:08:14;101672.84;;;5.94;95.53
65557;BME280;52200;53.490;14.376;2022-11-02T03:13:42;101668.59;;;5.89;95.88
65557;BME280;52200;53.490;14.376;2022-11-02T03:18:52;101665.03;;;5.63;96.39
65557;BME280;52200;53.490;14.376;2022-11-02T03:21:28;101671.81;;;5.72;96.49
65557;BME280;52200;53.490;14.376;2022-11-02T03:24:04;101665.09;;;5.73;95.69
65557;BME280;52200;53.490;14.376;2022-11-02T03:29:53;101660.88;;;5.70;96.31
65557;BME280;52200;53.490;14.376;2022-11-02T03:32:33;101660.69;;;5.52;96.85
65557;BME280;52200;53.490;14.376;2022-11-02T03:35:02;101648.75;;;5.32;97.90
65557;BME280;52200;53.490;14.376;2022-11-02T03:37:45;101653.19;;;5.53;97.82
65557;BME280;52200;53.490;14.376;2022-11-02T03:42:42;101654.94;;;5.63;96.96
65557;BME280;52200;53.490;14.376;2022-11-02T03:45:13;101654.75;;;5.43;98.21
65557;BME280;52200;53.490;14.376;2022-11-02T03:47:44;101653.84;;;5.38;100.00
65557;BME280;52200;53.490;14.376;2022-11-02T03:50:13;101646.44;;;5.52;100.00
65557;BME280;52200;53.490;14.376;2022-11-02T03:52:44;101645.66;;;5.59;100.00
65557;BME280;52200;53.490;14.376;2022-11-02T03:55:11;101650.66;;;5.55;100.00
65557;BME280;52200;53.490;14.376;2022-11-02T03:57:46;101645.75;;;5.70;100.00
65557;BME280;52200;53.490;14.376;2022-11-02T04:00:20;101636.59;;;5.81;99.78
65557;BME280;52200;53.490;14.376;2022-11-02T04:02:50;101637.50;;;5.90;100.00
65557;BME280;52200;53.490;14.376;2022-11-02T04:05:16;101639.88;;;5.71;100.00
65557;BME280;52200;53.490;14.376;2022-11-02T04:07:47;101638.31;;;5.89;100.00
65557;BME280;52200;53.490;14.376;2022-11-02T04:10:33;101646.75;;;5.94;100.00
65557;BME280;52200;53.490;14.376;2022-11-02T04:12:58;101652.75;;;5.99;99.58
65557;BME280;52200;53.490;14.376;2022-11-02T04:15:42;101642.53;;;5.90;99.36
65557;BME280;52200;53.490;14.376;2022-11-02T04:18:07;101657.78;;;6.02;98.70
65557;BME280;52200;53.490;14.376;2022-11-02T04:20:51;101653.34;;;5.73;100.00
65557;BME280;52200;53.490;14.376;2022-11-02T04:23:17;101660.03;;;5.68;100.00
65557;BME280;52200;53.490;14.376;2022-11-02T04:26:02;101657.34;;;5.49;100.00
65557;BME280;52200;53.490;14.376;2022-11-02T04:28:28;101660.75;;;5.55;100.00
65557;BME280;52200;53.490;14.376;2022-11-02T04:30:53;101659.94;;;5.59;100.00
65557;BME280;52200;53.490;14.376;2022-11-02T04:33:19;101664.38;;;5.86;100.00
65557;BME280;52200;53.490;14.376;2022-11-02T04:38:27;101669.53;;;5.99;100.00
65557;BME280;52200;53.490;14.376;2022-11-02T04:41:09;101659.63;;;6.23;100.00
65557;BME280;52200;53.490;14.376;2022-11-02T04:43:54;101652.56;;;5.84;100.00
65557;BME280;52200;53.490;14.376;2022-11-02T04:46:21;101652.53;;;5.79;100.00
65557;BME280;52200;53.490;14.376;2022-11-02T04:48:47;101650.16;;;5.96;100.00
65557;BME280;52200;53.490;14.376;2022-11-02T04:51:13;101645.19;;;6.02;100.00
65557;BME280;52200;53.490;14.376;2022-11-02T04:53:39;101636.69;;;5.92;100.00
65557;BME280;52200;53.490;14.376;2022-11-02T04:56:04;101646.09;;;6.13;100.00
65557;BME280;52200;53.490;14.376;2022-11-02T04:58:30;101646.00;;;6.01;100.00
65557;BME280;52200;53.490;14.376;2022-11-02T05:00:56;101645.22;;;6.08;100.00
65557;BME280;52200;53.490;14.376;2022-11-02T05:03:21;101647.78;;;6.11;100.00
65557;BME280;52200;53.490;14.376;2022-11-02T05:05:47;101642.50;;;5.84;100.00
65557;BME280;52200;53.490;14.376;2022-11-02T05:08:12;101659.22;;;5.75;100.00
65557;BME280;52200;53.490;14.376;2022-11-02T05:10:38;101656.88;;;5.95;100.00
65557;BME280;52200;53.490;14.376;2022-11-02T05:13:03;101660.31;;;5.99;100.00
65557;BME280;52200;53.490;14.376;2022-11-02T05:15:29;101660.34;;;6.07;100.00
65557;BME280;52200;53.490;14.376;2022-11-02T05:17:54;101659.53;;;6.12;100.00
65557;BME280;52200;53.490;14.376;2022-11-02T05:20:20;101666.22;;;6.04;100.00
65557;BME280;52200;53.490;14.376;2022-11-02T05:22:45;101662.75;;;5.96;100.00
65557;BME280;52200;53.490;14.376;2022-11-02T05:25:11;101670.31;;;5.96;100.00
65557;BME280;52200;53.490;14.376;2022-11-02T05:27:37;101669.34;;;5.78;100.00
65557;BME280;52200;53.490;14.376;2022-11-02T05:30:03;101660.31;;;5.99;100.00
65557;BME280;52200;53.490;14.376;2022-11-02T05:32:29;101662.06;;;6.09;100.00
65557;BME280;52200;53.490;14.376;2022-11-02T05:34:56;101662.16;;;6.25;100.00
65557;BME280;52200;53.490;14.376;2022-11-02T05:37:22;101663.75;;;6.10;100.00
65557;BME280;52200;53.490;14.376;2022-11-02T05:39:47;101671.41;;;6.23;100.00
65557;BME280;52200;53.490;14.376;2022-11-02T05:42:13;101673.84;;;6.09;100.00
65557;BME280;52200;53.490;14.376;2022-11-02T05:44:38;101667.19;;;6.23;100.00
65557;BME280;52200;53.490;14.376;2022-11-02T05:47:04;101670.56;;;6.27;100.00
65557;BME280;52200;53.490;14.376;2022-11-02T05:49:30;101671.44;;;6.29;100.00
65557;BME280;52200;53.490;14.376;2022-11-02T05:51:55;101673.09;;;6.27;100.00
65557;BME280;52200;53.490;14.376;2022-11-02T05:54:21;101673.19;;;6.39;100.00
65557;BME280;52200;53.490;14.376;2022-11-02T05:56:46;101674.03;;;6.41;100.00
65557;BME280;52200;53.490;14.376;2022-11-02T05:59:12;101667.34;;;6.45;100.00
65557;BME280;52200;53.490;14.376;2022-11-02T06:01:37;101674.03;;;6.41;100.00
65557;BME280;52200;53.490;14.376;2022-11-02T06:04:04;101680.75;;;6.41;100.00
65557;BME280;52200;53.490;14.376;2022-11-02T06:06:29;101670.75;;;6.55;100.00
65557;BME280;52200;53.490;14.376;2022-11-02T06:08:55;101670.69;;;6.44;100.00
65557;BME280;52200;53.490;14.376;2022-11-02T06:11:20;101683.19;;;6.24;100.00
65557;BME280;52200;53.490;14.376;2022-11-02T06:13:48;101685.59;;;6.10;100.00
65557;BME280;52200;53.490;14.376;2022-11-02T06:16:15;101687.50;;;6.42;100.00
65557;BME280;52200;53.490;14.376;2022-11-02T06:18:41;101690.06;;;6.50;100.00
65557;BME280;52200;53.490;14.376;2022-11-02T06:21:07;101691.66;;;6.35;100.00
65557;BME280;52200;53.490;14.376;2022-11-02T06:23:33;101688.25;;;6.27;100.00
65557;BME280;52200;53.490;14.376;2022-11-02T06:25:59;101690.88;;;6.47;100.00
65557;BME280;52200;53.490;14.376;2022-11-02T06:28:26;101696.72;;;6.38;100.00
65557;BME280;52200;53.490;14.376;2022-11-02T06:30:52;101695.22;;;6.65;100.00
65557;BME280;52200;53.490;14.376;2022-11-02T06:33:18;101702.00;;;6.82;100.00
65557;BME280;52200;53.490;14.376;2022-11-02T06:35:50;101701.25;;;6.92;100.00
65557;BME280;52200;53.490;14.376;2022-11-02T06:38:17;101701.97;;;6.71;100.00
65557;BME280;52200;53.490;14.376;2022-11-02T06:40:42;101703.66;;;6.67;100.00
65557;BME280;52200;53.490;14.376;2022-11-02T06:43:08;101695.28;;;6.74;100.00
65557;BME280;52200;53.490;14.376;2022-11-02T06:45:34;101705.31;;;6.67;100.00
65557;BME280;52200;53.490;14.376;2022-11-02T06:48:00;101697.78;;;6.77;100.00
65557;BME280;52200;53.490;14.376;2022-11-02T06:50:26;101693.56;;;6.78;100.00
65557;BME280;52200;53.490;14.376;2022-11-02T06:52:51;101695.28;;;6.77;100.00
65557;BME280;52200;53.490;14.376;2022-11-02T06:55:18;101695.34;;;6.96;100.00
65557;BME280;52200;53.490;14.376;2022-11-02T06:57:44;101696.25;;;7.12;100.00
65557;BME280;52200;53.490;14.376;2022-11-02T07:00:11;101690.31;;;6.99;100.00
65557;BME280;52200;53.490;14.376;2022-11-02T07:02:40;101692.91;;;7.19;100.00
65557;BME280;52200;53.490;14.376;2022-11-02T07:05:06;101692.00;;;6.96;100.00
65557;BME280;52200;53.490;14.376;2022-11-02T07:07:32;101695.41;;;7.05;100.00
65557;BME280;52200;53.490;14.376;2022-11-02T07:09:58;101690.28;;;6.98;100.00
65557;BME280;52200;53.490;14.376;2022-11-02T07:12:23;101702.09;;;6.96;100.00
65557;BME280;52200;53.490;14.376;2022-11-02T07:14:48;101700.44;;;7.02;100.00
65557;BME280;52200;53.490;14.376;2022-11-02T07:17:14;101699.59;;;7.05;100.00
65557;BME280;52200;53.490;14.376;2022-11-02T07:19:39;101706.34;;;7.12;100.00
65557;BME280;52200;53.490;14.376;2022-11-02T07:22:05;101705.56;;;7.27;100.00
65557;BME280;52200;53.490;14.376;2022-11-02T07:24:30;101712.38;;;7.59;100.00
65557;BME280;52200;53.490;14.376;2022-11-02T07:26:56;101719.94;;;7.39;100.00
65557;BME280;52200;53.490;14.376;2022-11-02T07:29:21;101711.47;;;7.34;100.00
65557;BME280;52200;53.490;14.376;2022-11-02T07:31:47;101714.06;;;7.49;100.00
65557;BME280;52200;53.490;14.376;2022-11-02T07:34:13;101714.06;;;7.65;100.00
65557;BME280;52200;53.490;14.376;2022-11-02T07:36:39;101713.25;;;7.73;100.00
65557;BME280;52200;53.490;14.376;2022-11-02T07:39:05;101715.75;;;7.58;100.00
65557;BME280;52200;53.490;14.376;2022-11-02T07:41:32;101714.94;;;7.84;100.00
65557;BME280;52200;53.490;14.376;2022-11-02T07:43:57;101711.59;;;7.91;100.00
65557;BME280;52200;53.490;14.376;2022-11-02T07:46:23;101701.44;;;7.94;100.00
65557;BME280;52200;53.490;14.376;2022-11-02T07:48:48;101694.72;;;7.96;100.00
65557;BME280;52200;53.490;14.376;2022-11-02T07:51:13;101698.06;;;8.14;100.00
65557;BME280;52200;53.490;14.376;2022-11-02T07:53:39;101694.66;;;8.41;100.00
65557;BME280;52200;53.490;14.376;2022-11-02T07:56:05;101692.13;;;8.36;100.00
65557;BME280;52200;53.490;14.376;2022-11-02T07:58:31;101695.53;;;8.48;100.00
65557;BME280;52200;53.490;14.376;2022-11-02T08:00:58;101701.41;;;8.64;100.00
65557;BME280;52200;53.490;14.376;2022-11-02T08:03:24;101694.59;;;8.78;100.00
65557;BME280;52200;53.490;14.376;2022-11-02T08:05:49;101701.38;;;8.67;100.00
65557;BME280;52200;53.490;14.376;2022-11-02T08:08:17;101695.41;;;8.82;100.00
65557;BME280;52200;53.490;14.376;2022-11-02T08:10:45;101695.44;;;8.77;100.00
65557;BME280;52200;53.490;14.376;2022-11-02T08:13:15;101693.69;;;8.96;100.00
65557;BME280;52200;53.490;14.376;2022-11-02T08:15:41;101699.53;;;9.09;100.00
65557;BME280;52200;53.490;14.376;2022-11-02T08:18:12;101698.66;;;9.19;100.00
65557;BME280;52200;53.490;14.376;2022-11-02T08:20:38;101705.34;;;9.28;100.00
65557;BME280;52200;53.490;14.376;2022-11-02T08:23:04;101710.44;;;9.25;100.00
65557;BME280;52200;53.490;14.376;2022-11-02T08:25:32;101709.69;;;9.04;100.00
65557;BME280;52200;53.490;14.376;2022-11-02T08:27:58;101698.63;;;9.23;100.00
65557;BME280;52200;53.490;14.376;2022-11-02T08:30:25;101693.47;;;9.36;100.00
65557;BME280;52200;53.490;14.376;2022-11-02T08:32:51;101701.00;;;9.50;100.00
65557;BME280;52200;53.490;14.376;2022-11-02T08:35:16;101696.88;;;9.32;100.00
65557;BME280;52200;53.490;14.376;2022-11-02T08:37:42;101688.16;;;9.72;100.00
65557;BME280;52200;53.490;14.376;2022-11-02T08:40:08;101685.72;;;9.55;100.00
65557;BME280;52200;53.490;14.376;2022-11-02T08:42:34;101679.56;;;9.87;100.00
65557;BME280;52200;53.490;14.376;2022-11-02T08:44:59;101674.50;;;9.87;100.00
65557;BME280;52200;53.490;14.376;2022-11-02T08:47:25;101671.19;;;9.79;100.00
65557;BME280;52200;53.490;14.376;2022-11-02T08:49:50;101676.13;;;9.96;100.00
65557;BME280;52200;53.490;14.376;2022-11-02T08:52:17;101675.94;;;10.18;100.00
65557;BME280;52200;53.490;14.376;2022-11-02T08:54:42;101669.78;;;10.42;100.00
65557;BME280;52200;53.490;14.376;2022-11-02T08:57:08;101677.97;;;10.67;99.16
65557;BME280;52200;53.490;14.376;2022-11-02T08:59:33;101673.81;;;10.61;100.00
65557;BME280;52200;53.490;14.376;2022-11-02T09:01:59;101680.09;;;11.01;99.74
65557;BME280;52200;53.490;14.376;2022-11-02T09:04:24;101683.28;;;11.16;97.03
65557;BME280;52200;53.490;14.376;2022-11-02T09:06:50;101673.31;;;11.02;97.75
65557;BME280;52200;53.490;14.376;2022-11-02T09:09:16;101677.56;;;11.00;97.54
65557;BME280;52200;53.490;14.376;2022-11-02T09:11:41;101664.59;;;11.18;96.84
65557;BME280;52200;53.490;14.376;2022-11-02T09:14:07;101668.31;;;10.95;96.31
65557;BME280;52200;53.490;14.376;2022-11-02T09:16:33;101673.94;;;11.16;96.70
65557;BME280;52200;53.490;14.376;2022-11-02T09:18:58;101668.84;;;11.19;95.60
65557;BME280;52200;53.490;14.376;2022-11-02T09:21:24;101675.81;;;11.05;96.22
65557;BME280;52200;53.490;14.376;2022-11-02T09:23:49;101674.84;;;11.15;94.64
65557;BME280;52200;53.490;14.376;2022-11-02T09:26:15;101672.47;;;11.03;95.62
65557;BME280;52200;53.490;14.376;2022-11-02T09:28:40;101670.63;;;11.11;95.78
65557;BME280;52200;53.490;14.376;2022-11-02T09:31:06;101679.53;;;11.43;94.32
65557;BME280;52200;53.490;14.376;2022-11-02T09:33:31;101667.06;;;11.79;92.73
65557;BME280;52200;53.490;14.376;2022-11-02T09:36:02;101669.06;;;11.61;93.51
65557;BME280;52200;53.490;14.376;2022-11-02T09:38:28;101668.47;;;11.44;93.43
65557;BME280;52200;53.490;14.376;2022-11-02T09:41:29;101669.56;;;11.84;91.95
65557;BME280;52200;53.490;14.376;2022-11-02T09:44:08;101655.97;;;11.85;92.05
65557;BME280;52200;53.490;14.376;2022-11-02T09:46:39;101665.63;;;12.16;90.91
65557;BME280;52200;53.490;14.376;2022-11-02T09:49:27;101666.47;;;12.16;89.65
65557;BME280;52200;53.490;14.376;2022-11-02T09:51:57;101664.03;;;12.10;91.30
65557;BME280;52200;53.490;14.376;2022-11-02T09:54:49;101659.94;;;12.03;91.76
65557;BME280;52200;53.490;14.376;2022-11-02T09:57:25;101655.94;;;12.35;90.27
65557;BME280;52200;53.490;14.376;2022-11-02T09:59:51;101667.41;;;12.12;90.95
65557;BME280;52200;53.490;14.376;2022-11-02T10:05:41;101665.94;;;11.99;91.99
65557;BME280;52200;53.490;14.376;2022-11-02T10:08:30;101671.97;;;11.93;91.84
65557;BME280;52200;53.490;14.376;2022-11-02T10:14:04;101666.34;;;12.22;89.89
65557;BME280;52200;53.490;14.376;2022-11-02T10:16:44;101665.84;;;12.03;90.03
65557;BME280;52200;53.490;14.376;2022-11-02T10:19:17;101662.66;;;11.90;90.18
65557;BME280;52200;53.490;14.376;2022-11-02T10:21:46;101670.13;;;12.03;89.54
65557;BME280;52200;53.490;14.376;2022-11-02T10:27:03;101663.09;;;11.63;91.87
65557;BME280;52200;53.490;14.376;2022-11-02T10:32:17;101666.28;;;11.77;91.62
65557;BME280;52200;53.490;14.376;2022-11-02T10:34:44;101668.38;;;12.05;89.76
65557;BME280;52200;53.490;14.376;2022-11-02T10:51:09;101657.84;;;12.23;87.46
65557;BME280;52200;53.490;14.376;2022-11-02T10:53:39;101671.19;;;12.38;86.99
65557;BME280;52200;53.490;14.376;2022-11-02T10:56:21;101665.88;;;12.49;86.72
65557;BME280;52200;53.490;14.376;2022-11-02T11:01:26;101672.91;;;12.36;86.93
65557;BME280;52200;53.490;14.376;2022-11-02T11:04:03;101663.06;;;12.17;86.86
65557;BME280;52200;53.490;14.376;2022-11-02T11:06:40;101662.91;;;12.27;86.84
65557;BME280;52200;53.490;14.376;2022-11-02T11:09:23;101675.13;;;12.53;85.39
65557;BME280;52200;53.490;14.376;2022-11-02T11:11:58;101659.69;;;12.61;85.35
65557;BME280;52200;53.490;14.376;2022-11-02T11:14:27;101662.09;;;12.67;86.40
65557;BME280;52200;53.490;14.376;2022-11-02T11:16:56;101661.34;;;12.63;86.17
65557;BME280;52200;53.490;14.376;2022-11-02T11:19:32;101672.00;;;12.82;85.14
65557;BME280;52200;53.490;14.376;2022-11-02T11:21:59;101666.38;;;13.05;84.57
65557;BME280;52200;53.490;14.376;2022-11-02T11:24:28;101662.38;;;12.95;85.11
65557;BME280;52200;53.490;14.376;2022-11-02T11:27:14;101672.38;;;13.04;82.87
65557;BME280;52200;53.490;14.376;2022-11-02T11:32:24;101658.97;;;13.34;82.60
65557;BME280;52200;53.490;14.376;2022-11-02T11:35:02;101670.25;;;13.23;81.91
65557;BME280;52200;53.490;14.376;2022-11-02T11:37:29;101657.78;;;13.11;83.46
65557;BME280;52200;53.490;14.376;2022-11-02T11:40:04;101661.63;;;12.90;83.60
65557;BME280;52200;53.490;14.376;2022-11-02T11:42:34;101659.00;;;12.95;82.06
65557;BME280;52200;53.490;14.376;2022-11-02T11:45:03;101659.59;;;13.06;83.00
65557;BME280;52200;53.490;14.376;2022-11-02T11:47:34;101667.94;;;13.14;83.04
65557;BME280;52200;53.490;14.376;2022-11-02T11:50:03;101661.88;;;13.18;83.65
65557;BME280;52200;53.490;14.376;2022-11-02T11:52:31;101661.19;;;13.10;83.65
65557;BME280;52200;53.490;14.376;2022-11-02T11:55:17;101661.97;;;13.14;82.70
65557;BME280;52200;53.490;14.376;2022-11-02T11:57:43;101665.56;;;13.05;82.16
65557;BME280;52200;53.490;14.376;2022-11-02T12:00:29;101663.19;;;13.35;81.55
65557;BME280;52200;53.490;14.376;2022-11-02T12:03:03;101659.09;;;13.28;81.54
65557;BME280;52200;53.490;14.376;2022-11-02T12:31:44;101670.97;;;12.91;77.61
65557;BME280;52200;53.490;14.376;2022-11-02T12:34:33;101672.66;;;12.90;78.37
65557;BME280;52200;53.490;14.376;2022-11-02T12:39:53;101666.69;;;12.92;78.75
65557;BME280;52200;53.490;14.376;2022-11-02T12:42:31;101670.84;;;12.97;78.33
65557;BME280;52200;53.490;14.376;2022-11-02T12:48:00;101662.22;;;12.61;80.25
65557;BME280;52200;53.490;14.376;2022-11-02T12:53:16;101658.66;;;12.69;79.67
65557;BME280;52200;53.490;14.376;2022-11-02T12:55:46;101663.44;;;12.85;78.16
65557;BME280;52200;53.490;14.376;2022-11-02T12:58:21;101665.00;;;12.90;78.39
65557;BME280;52200;53.490;14.376;2022-11-02T13:00:55;101662.91;;;13.10;78.76
65557;BME280;52200;53.490;14.376;2022-11-02T13:03:48;101651.56;;;13.23;77.60
65557;BME280;52200;53.490;14.376;2022-11-02T13:06:20;101662.75;;;13.17;77.49
65557;BME280;52200;53.490;14.376;2022-11-02T13:08:53;101667.72;;;13.23;78.19
65557;BME280;52200;53.490;14.376;2022-11-02T13:11:52;101664.19;;;13.29;77.71
65557;BME280;52200;53.490;14.376;2022-11-02T13:14:19;101670.81;;;13.38;77.70
65557;BME280;52200;53.490;14.376;2022-11-02T13:17:00;101668.03;;;13.47;76.71
65557;BME280;52200;53.490;14.376;2022-11-02T13:19:34;101661.00;;;13.57;76.16
65557;BME280;52200;53.490;14.376;2022-11-02T13:22:02;101672.09;;;13.56;75.50
65557;BME280;52200;53.490;14.376;2022-11-02T13:24:38;101671.00;;;13.66;76.68
65557;BME280;52200;53.490;14.376;2022-11-02T13:27:05;101673.28;;;13.77;75.60
65557;BME280;52200;53.490;14.376;2022-11-02T13:29:43;101675.09;;;13.74;75.76
65557;BME280;52200;53.490;14.376;2022-11-02T13:32:27;101682.25;;;13.94;74.94
65557;BME280;52200;53.490;14.376;2022-11-02T13:34:53;101679.44;;;13.68;75.78
65557;BME280;52200;53.490;14.376;2022-11-02T13:37:27;101676.34;;;13.92;76.14
65557;BME280;52200;53.490;14.376;2022-11-02T13:39:58;101679.84;;;13.88;76.04
65557;BME280;52200;53.490;14.376;2022-11-02T13:50:21;101680.63;;;13.91;75.47
65557;BME280;52200;53.490;14.376;2022-11-02T13:52:53;101685.03;;;13.84;74.99
65557;BME280;52200;53.490;14.376;2022-11-02T13:55:23;101682.59;;;13.80;74.94
65557;BME280;52200;53.490;14.376;2022-11-02T13:57:58;101693.66;;;13.80;74.17
65557;BME280;52200;53.490;14.376;2022-11-02T14:00:28;101686.63;;;13.89;74.37
65557;BME280;52200;53.490;14.376;2022-11-02T14:02:59;101698.25;;;13.66;76.30
65557;BME280;52200;53.490;14.376;2022-11-02T14:05:33;101690.56;;;13.67;76.16
65557;BME280;52200;53.490;14.376;2022-11-02T14:08:05;101689.84;;;13.61;75.41
65557;BME280;52200;53.490;14.376;2022-11-02T14:10:38;101691.78;;;13.51;76.68
65557;BME280;52200;53.490;14.376;2022-11-02T14:13:08;101688.88;;;13.66;75.88
65557;BME280;52200;53.490;14.376;2022-11-02T14:15:37;101688.66;;;13.76;74.89
65557;BME280;52200;53.490;14.376;2022-11-02T14:18:12;101694.84;;;13.65;75.56
65557;BME280;52200;53.490;14.376;2022-11-02T14:20:45;101686.63;;;13.52;75.45
65557;BME280;52200;53.490;14.376;2022-11-02T14:25:47;101697.38;;;13.29;74.68
65557;BME280;52200;53.490;14.376;2022-11-02T14:36:31;101695.09;;;13.17;75.21
65557;BME280;52200;53.490;14.376;2022-11-02T14:42:28;101704.44;;;13.16;74.30
65557;BME280;52200;53.490;14.376;2022-11-02T14:47:43;101703.81;;;13.05;74.37
65557;BME280;52200;53.490;14.376;2022-11-02T14:50:16;101695.03;;;13.18;73.83
65557;BME280;52200;53.490;14.376;2022-11-02T14:55:30;101708.53;;;13.23;74.14
65557;BME280;52200;53.490;14.376;2022-11-02T15:00:35;101705.47;;;13.07;73.73
65557;BME280;52200;53.490;14.376;2022-11-02T15:03:04;101703.19;;;12.95;74.42
65557;BME280;52200;53.490;14.376;2022-11-02T15:05:35;101706.56;;;12.97;73.98
65557;BME280;52200;53.490;14.376;2022-11-02T15:08:08;101710.38;;;12.76;74.77
65557;BME280;52200;53.490;14.376;2022-11-02T15:10:43;101721.63;;;12.66;75.37